Terminal Aerodrome Forecast
Issued by NWS Jacksonville, FL

Home | Current Version | Previous Version | Text Only | Print | Product List | Glossary On
Versions: 1 2 3 4 5 6 7 8 9 10 11 12 13 14 15 16 17 18 19 20 21 22 23 24 25 26 27 28 29
000
FTUS42 KJAX 060911 AAA
TAFSSI
TAF AMD
KSSI 060911Z 0609/0706 02013G20KT 3SM -SHRA BR OVC007
     FM061400 03014G22KT 5SM -SHRA BR OVC005
     FM062000 02011G18KT P6SM OVC012
     FM070000 02008KT P6SM SCT020 BKN250=

USA.gov is the U.S. government's official web portal to all federal, state and local government web resources and services.